Time;durP1;ratioP1;P1;durP2;ratioP2;P2;SDS_P1;SDS_P2;PMS_P1;PMS_P2;Temp;Humidity;BMP_temperature;BMP_pressure;BME280_temperature;BME280_humidity;BME280_pressure;Samples;Min_cycle;Max_cycle;Signal;HPM_P1;HPM_P2
2022/05/20 00:01:20;;;;;;;2.40;1.70;;;;;;;15.40;36.34;97216.29;108337;1266;33423;-81
2022/05/20 00:03:51;;;;;;;3.20;1.40;;;;;;;15.37;36.40;97218.61;108315;1266;40891;-80
2022/05/20 00:06:22;;;;;;;3.00;1.30;;;;;;;15.34;36.30;97214.05;108180;1268;60241;-78
2022/05/20 00:08:53;;;;;;;2.40;1.40;;;;;;;15.32;36.30;97214.02;108037;1267;44031;-80
2022/05/20 00:11:24;;;;;;;2.30;1.40;;;;;;;15.28;36.33;97208.81;108108;1267;45426;-80
2022/05/20 00:13:55;;;;;;;1.90;1.30;;;;;;;15.20;36.45;97202.06;108140;1268;37914;-80
2022/05/20 00:16:26;;;;;;;2.70;1.50;;;;;;;15.16;36.41;97199.77;108053;1268;38231;-80
2022/05/20 00:18:57;;;;;;;4.70;1.60;;;;;;;15.15;36.32;97196.47;108114;1268;38856;-80
2022/05/20 00:21:28;;;;;;;4.80;2.40;;;;;;;15.13;36.33;97197.45;108078;1268;30809;-80
2022/05/20 00:24:00;;;;;;;3.80;1.60;;;;;;;15.13;36.07;97197.42;108072;1267;35709;-80
2022/05/20 00:26:31;;;;;;;3.30;1.40;;;;;;;15.15;35.99;97193.59;108119;1268;42715;-79
2022/05/20 00:29:02;;;;;;;2.00;1.00;;;;;;;15.12;35.93;97194.34;108102;1267;40587;-81
2022/05/20 00:31:33;;;;;;;3.50;1.80;;;;;;;15.09;35.80;97192.95;108057;1268;53447;-80
2022/05/20 00:34:04;;;;;;;3.80;1.70;;;;;;;15.09;35.81;97191.13;108120;1267;34273;-81
2022/05/20 00:36:35;;;;;;;4.60;1.60;;;;;;;15.08;35.79;97184.36;108055;1266;68202;-80
2022/05/20 00:39:06;;;;;;;5.60;1.70;;;;;;;15.09;35.87;97184.08;108022;1268;35298;-81
2022/05/20 00:41:36;;;;;;;4.00;1.30;;;;;;;15.07;35.83;97182.83;108083;1268;47274;-80
2022/05/20 00:44:08;;;;;;;2.70;1.00;;;;;;;15.04;35.92;97179.44;108247;1265;42716;-80
2022/05/20 00:46:39;;;;;;;6.70;1.60;;;;;;;15.03;35.90;97184.80;108199;1265;37614;-80
2022/05/20 00:49:15;;;;;;;1.50;1.40;;;;;;;15.01;36.01;97184.96;108211;1265;36978;-80
2022/05/20 00:51:49;;;;;;;9.10;1.50;;;;;;;14.99;35.98;97186.70;108144;1266;53902;-80
2022/05/20 00:54:23;;;;;;;2.80;1.50;;;;;;;15.05;35.89;97190.70;108291;1265;41815;-81
2022/05/20 00:57:01;;;;;;;2.10;1.40;;;;;;;15.04;35.98;97196.59;108164;1265;58970;-80
2022/05/20 00:59:35;;;;;;;4.20;1.70;;;;;;;15.00;36.00;97195.88;108091;1266;33352;-81
2022/05/20 01:02:09;;;;;;;3.00;1.50;;;;;;;14.92;36.21;97201.07;108127;1267;32882;-80
2022/05/20 01:04:42;;;;;;;2.30;1.60;;;;;;;14.87;36.21;97199.65;108039;1267;45362;-80
2022/05/20 01:07:16;;;;;;;4.20;1.40;;;;;;;14.91;36.27;97199.33;108031;1267;50274;-80
2022/05/20 01:09:47;;;;;;;1.80;1.00;;;;;;;14.90;36.21;97198.16;107964;1267;42338;-80
2022/05/20 01:12:18;;;;;;;4.30;1.60;;;;;;;14.91;36.30;97192.00;108102;1267;33069;-80
2022/05/20 01:14:50;;;;;;;3.20;2.00;;;;;;;14.83;36.43;97193.48;108135;1267;32405;-80
2022/05/20 01:17:22;;;;;;;2.80;1.90;;;;;;;14.78;36.41;97188.90;108188;1268;44652;-80
2022/05/20 01:19:56;;;;;;;1.80;1.40;;;;;;;14.75;36.37;97187.02;108131;1265;40346;-80
2022/05/20 01:22:37;;;;;;;4.50;1.80;;;;;;;14.74;36.54;97187.19;108154;1265;41179;-80
2022/05/20 01:25:09;;;;;;;;;;;;;;;14.71;36.58;97182.52;108250;1265;33128;-80
2022/05/20 01:27:43;;;;;;;3.10;1.60;;;;;;;14.68;36.75;97184.64;108171;1265;43959;-79
2022/05/20 01:30:19;;;;;;;2.20;1.50;;;;;;;14.65;36.82;97175.70;108187;1265;43346;-80
2022/05/20 01:32:51;;;;;;;5.90;1.70;;;;;;;14.65;36.83;97174.38;108305;1265;35747;-80
2022/05/20 01:35:30;;;;;;;2.40;1.30;;;;;;;14.66;36.86;97168.53;108064;1267;54701;-78
2022/05/20 01:38:01;;;;;;;2.70;0.80;;;;;;;14.64;36.90;97165.41;107993;1268;40320;-80
2022/05/20 01:40:42;;;;;;;4.20;2.00;;;;;;;14.64;36.99;97156.08;108033;1267;67734;-80
2022/05/20 01:43:25;;;;;;;2.90;1.70;;;;;;;14.61;37.04;97151.90;108108;1268;35233;-80
2022/05/20 01:46:03;;;;;;;2.20;1.10;;;;;;;14.62;37.15;97143.60;108170;1265;45064;-80
2022/05/20 01:48:42;;;;;;;4.50;1.20;;;;;;;14.66;37.07;97150.45;108228;1265;44924;-80
2022/05/20 01:51:17;;;;;;;4.70;1.60;;;;;;;14.72;36.93;97145.59;108206;1265;32282;-80
2022/05/20 01:53:53;;;;;;;5.60;1.30;;;;;;;14.79;36.83;97146.02;108334;1265;33447;-80
2022/05/20 01:56:30;;;;;;;3.60;1.40;;;;;;;14.81;36.73;97144.08;108040;1267;48311;-80
2022/05/20 01:59:07;;;;;;;3.60;1.60;;;;;;;14.82;36.81;97146.61;107989;1267;53886;-81
2022/05/20 02:01:45;;;;;;;4.10;1.70;;;;;;;14.89;36.54;97153.48;107955;1268;46843;-80
2022/05/20 02:04:21;;;;;;;2.60;1.40;;;;;;;14.94;36.46;97163.45;108070;1268;41896;-80
2022/05/20 02:06:56;;;;;;;2.10;1.30;;;;;;;14.94;36.43;97165.59;108051;1266;50716;-79
2022/05/20 02:09:33;;;;;;;2.40;1.20;;;;;;;14.91;36.49;97160.45;108053;1268;33993;-79
2022/05/20 02:12:04;;;;;;;2.70;1.20;;;;;;;14.88;36.68;97161.56;108126;1268;35266;-79
2022/05/20 02:14:41;;;;;;;2.70;1.50;;;;;;;14.80;36.75;97154.23;108101;1267;39312;-80
2022/05/20 02:17:17;;;;;;;4.50;1.60;;;;;;;14.77;36.81;97150.52;108186;1265;41432;-80
2022/05/20 02:19:53;;;;;;;1.90;1.40;;;;;;;14.75;36.95;97156.63;108254;1268;40258;-80
2022/05/20 02:22:27;;;;;;;3.80;1.70;;;;;;;14.70;37.07;97150.32;108045;1265;39348;-80
2022/05/20 02:25:00;;;;;;;1.70;0.80;;;;;;;14.69;37.03;97150.08;108054;1268;42631;-79
2022/05/20 02:27:38;;;;;;;3.20;1.20;;;;;;;14.68;37.13;97152.33;108050;1267;32194;-80
2022/05/20 02:30:12;;;;;;;2.70;1.30;;;;;;;14.68;37.26;97150.48;108217;1265;43691;-80
2022/05/20 02:32:48;;;;;;;2.40;1.50;;;;;;;14.68;37.27;97149.77;108194;1268;48001;-80
2022/05/20 02:35:19;;;;;;;2.00;1.40;;;;;;;14.70;37.29;97140.14;108285;1265;30323;-80
2022/05/20 02:37:50;;;;;;;5.30;1.90;;;;;;;14.69;37.29;97144.15;108255;1265;42755;-80
2022/05/20 02:40:21;;;;;;;1.20;0.80;;;;;;;14.70;37.27;97148.62;108279;1265;33450;-80
2022/05/20 02:42:52;;;;;;;3.10;1.20;;;;;;;14.74;37.14;97150.77;108233;1266;42787;-77
2022/05/20 02:45:23;;;;;;;2.00;1.50;;;;;;;14.78;37.15;97153.67;108208;1265;45615;-77
2022/05/20 02:47:55;;;;;;;3.90;1.60;;;;;;;14.78;37.08;97148.77;108261;1265;34952;-77
2022/05/20 02:50:26;;;;;;;1.80;1.30;;;;;;;14.79;37.07;97145.97;108163;1265;44305;-79
2022/05/20 02:52:57;;;;;;;4.10;1.80;;;;;;;14.80;37.09;97144.41;108191;1265;43134;-79
2022/05/20 02:55:28;;;;;;;5.40;1.60;;;;;;;14.80;37.12;97145.42;108237;1265;34453;-79
2022/05/20 02:57:59;;;;;;;1.80;1.30;;;;;;;14.79;37.24;97141.39;108237;1265;43548;-79
2022/05/20 03:06:18;;;;;;;2.40;1.00;;;;;;;14.74;37.39;97135.36;107752;1273;30835;-80
2022/05/20 03:08:49;;;;;;;3.20;1.40;;;;;;;14.71;37.42;97132.70;108073;1267;33542;-80
2022/05/20 03:11:20;;;;;;;2.30;1.50;;;;;;;14.68;37.47;97138.19;108066;1267;44123;-80
2022/05/20 03:13:51;;;;;;;3.10;1.50;;;;;;;14.65;37.61;97134.73;108147;1266;35877;-80
2022/05/20 03:16:22;;;;;;;3.20;1.60;;;;;;;14.67;37.56;97140.39;108087;1268;45047;-77
2022/05/20 03:18:53;;;;;;;3.30;1.70;;;;;;;14.66;37.54;97140.20;108222;1265;36763;-80
2022/05/20 03:21:25;;;;;;;3.10;1.40;;;;;;;14.66;37.69;97138.60;108214;1265;50588;-79
2022/05/20 03:23:55;;;;;;;2.60;1.60;;;;;;;14.63;37.75;97136.92;108177;1265;57785;-79
2022/05/20 03:26:26;;;;;;;3.60;1.00;;;;;;;14.61;37.88;97137.81;108113;1267;33809;-79
2022/05/20 03:28:59;;;;;;;2.80;1.50;;;;;;;14.62;37.89;97132.09;108087;1266;45705;-80
2022/05/20 03:31:33;;;;;;;5.80;1.60;;;;;;;14.62;37.89;97138.17;108233;1265;49745;-80
2022/05/20 03:34:06;;;;;;;3.40;1.50;;;;;;;14.61;37.87;97149.01;108188;1265;54602;-80
2022/05/20 03:36:40;;;;;;;3.40;1.30;;;;;;;14.64;37.89;97140.34;108166;1265;47527;-80
2022/05/20 03:39:13;;;;;;;4.90;1.40;;;;;;;14.63;38.01;97141.24;108176;1265;55588;-80
2022/05/20 03:41:45;;;;;;;2.50;1.30;;;;;;;14.62;38.09;97144.30;108234;1265;38112;-80
2022/05/20 03:44:17;;;;;;;2.00;1.30;;;;;;;14.65;38.07;97138.18;108144;1265;52583;-80
2022/05/20 03:46:51;;;;;;;3.60;1.70;;;;;;;14.68;38.12;97132.01;108204;1265;33596;-80
2022/05/20 03:49:25;;;;;;;3.40;1.50;;;;;;;14.71;37.94;97135.16;108117;1267;38201;-78
2022/05/20 03:51:57;;;;;;;3.40;1.50;;;;;;;14.79;37.89;97131.29;107980;1267;44300;-80
2022/05/20 03:54:33;;;;;;;2.10;0.80;;;;;;;14.87;37.90;97126.77;108032;1268;45762;-80
2022/05/20 03:57:05;;;;;;;3.50;1.90;;;;;;;14.91;37.86;97123.98;108078;1268;34959;-81
2022/05/20 03:59:37;;;;;;;3.30;1.70;;;;;;;14.98;37.87;97119.33;107995;1268;36209;-81
2022/05/20 04:02:10;;;;;;;4.10;1.70;;;;;;;15.02;38.04;97122.14;107975;1268;84355;-81
2022/05/20 04:04:43;;;;;;;3.20;1.40;;;;;;;15.05;37.96;97123.85;107942;1267;52527;-81
2022/05/20 04:07:17;;;;;;;3.40;1.30;;;;;;;15.11;37.96;97118.09;107949;1268;44750;-81
2022/05/20 04:09:49;;;;;;;2.30;1.30;;;;;;;15.15;37.91;97122.65;108156;1267;31983;-81
2022/05/20 04:12:27;;;;;;;3.40;1.40;;;;;;;15.18;37.93;97125.84;108149;1265;47443;-81
2022/05/20 04:14:59;;;;;;;3.50;1.50;;;;;;;15.22;38.06;97119.91;108135;1265;42955;-81
2022/05/20 04:17:30;;;;;;;3.40;1.60;;;;;;;15.31;38.08;97119.10;108184;1265;46329;-81
2022/05/20 04:20:03;;;;;;;1.80;1.10;;;;;;;15.40;38.03;97131.01;107989;1267;64138;-81
2022/05/20 04:22:36;;;;;;;1.90;1.60;;;;;;;15.50;37.81;97131.09;108057;1268;46849;-81
2022/05/20 04:25:09;;;;;;;3.40;1.40;;;;;;;15.57;37.65;97128.28;107865;1267;66361;-82
2022/05/20 04:27:40;;;;;;;2.80;1.70;;;;;;;15.65;37.67;97123.40;108080;1267;77926;-82
2022/05/20 04:30:13;;;;;;;2.20;1.30;;;;;;;15.73;37.64;97124.52;108097;1265;40169;-81
2022/05/20 04:32:44;;;;;;;4.10;1.90;;;;;;;15.83;37.58;97112.99;108091;1268;100525;-80
2022/05/20 04:35:15;;;;;;;2.90;1.40;;;;;;;15.91;37.46;97124.09;108075;1268;49567;-81
2022/05/20 04:37:47;;;;;;;2.20;1.30;;;;;;;15.98;37.55;97131.23;108026;1268;57411;-81
2022/05/20 04:40:18;;;;;;;5.10;1.50;;;;;;;16.05;37.55;97135.10;108194;1265;56610;-82
2022/05/20 04:48:32;;;;;;;1.80;1.30;;;;;;;16.48;37.37;97126.26;108051;1267;56631;-82
2022/05/20 04:51:04;;;;;;;1.60;1.30;;;;;;;16.73;37.32;97133.95;108028;1267;71899;-83
2022/05/20 04:56:23;;;;;;;1.80;1.50;;;;;;;17.35;36.43;97138.02;108225;1265;56686;-82
2022/05/20 04:58:54;;;;;;;2.10;1.30;;;;;;;17.61;36.50;97138.97;108274;1265;38832;-82
2022/05/20 05:01:25;;;;;;;3.10;1.10;;;;;;;19.35;34.98;97143.41;108279;1265;63756;-82
2022/05/20 05:03:56;;;;;;;1.90;1.40;;;;;;;21.69;33.20;97141.81;108290;1265;36290;-80
2022/05/20 05:06:27;;;;;;;2.30;1.40;;;;;;;23.58;30.82;97140.30;108220;1265;64280;-80
2022/05/20 05:08:59;;;;;;;4.50;1.70;;;;;;;24.53;28.50;97148.08;108278;1266;36260;-80
2022/05/20 05:11:30;;;;;;;3.70;1.50;;;;;;;24.85;28.55;97145.55;108257;1265;63325;-83
2022/05/20 05:14:01;;;;;;;2.70;1.50;;;;;;;25.47;27.97;97139.11;108247;1265;42355;-83
2022/05/20 05:16:33;;;;;;;2.20;1.30;;;;;;;24.55;27.18;97144.06;108290;1265;52813;-83
2022/05/20 05:19:04;;;;;;;2.60;1.40;;;;;;;24.67;27.79;97144.08;108309;1265;37024;-81
2022/05/20 05:21:35;;;;;;;3.70;1.20;;;;;;;26.07;26.66;97130.05;108310;1265;31325;-81
2022/05/20 05:24:07;;;;;;;2.40;1.20;;;;;;;27.65;26.33;97130.08;108236;1265;61433;-81
2022/05/20 05:26:40;;;;;;;3.50;1.30;;;;;;;28.79;25.04;97134.80;108236;1265;34510;-81
2022/05/20 05:29:21;;;;;;;3.20;1.30;;;;;;;29.99;24.55;97133.82;108237;1265;58199;-81
2022/05/20 05:31:55;;;;;;;3.70;1.50;;;;;;;30.94;23.41;97136.47;108092;1268;36954;-81
2022/05/20 05:34:26;;;;;;;3.40;1.60;;;;;;;31.06;22.04;97139.92;108114;1267;51137;-81
2022/05/20 05:36:58;;;;;;;2.20;1.40;;;;;;;30.69;22.64;97142.59;108079;1266;59206;-81
2022/05/20 05:39:28;;;;;;;2.90;1.40;;;;;;;31.78;21.77;97137.52;108265;1265;41494;-81
2022/05/20 05:42:02;;;;;;;3.80;1.30;;;;;;;31.75;21.15;97132.60;108326;1265;37639;-81
2022/05/20 05:44:33;;;;;;;3.20;1.50;;;;;;;30.94;20.53;97137.36;108228;1265;58144;-81
2022/05/20 05:47:05;;;;;;;3.60;1.30;;;;;;;28.45;21.44;97133.80;108211;1264;60863;-81
2022/05/20 05:49:36;;;;;;;3.70;1.20;;;;;;;27.47;22.74;97137.89;108150;1267;31364;-81
2022/05/20 05:52:08;;;;;;;3.10;1.50;;;;;;;27.67;22.31;97135.67;108325;1265;50309;-82
2022/05/20 05:54:39;;;;;;;2.00;1.00;;;;;;;28.20;22.76;97129.66;108425;1265;37196;-81
2022/05/20 05:57:10;;;;;;;3.90;1.10;;;;;;;28.60;22.51;97127.77;108143;1265;80505;-81
2022/05/20 05:59:44;;;;;;;2.30;1.20;;;;;;;29.71;22.25;97127.41;108286;1265;36528;-82
2022/05/20 06:02:15;;;;;;;2.50;1.30;;;;;;;30.04;20.94;97125.00;108218;1265;71227;-82
2022/05/20 06:04:46;;;;;;;2.20;1.00;;;;;;;29.77;21.56;97125.73;108268;1265;41255;-82
2022/05/20 06:07:17;;;;;;;3.10;1.30;;;;;;;30.34;21.40;97122.05;108286;1265;38258;-82
2022/05/20 06:09:48;;;;;;;4.20;1.20;;;;;;;30.50;20.66;97118.96;108365;1265;30188;-82
2022/05/20 06:12:19;;;;;;;2.60;1.20;;;;;;;30.44;20.71;97120.70;108117;1265;181113;-82
2022/05/20 06:14:50;;;;;;;3.30;1.20;;;;;;;30.42;20.52;97124.38;108284;1265;41686;-82
2022/05/20 06:17:21;;;;;;;1.80;1.00;;;;;;;30.29;20.76;97129.73;108352;1265;64542;-82
2022/05/20 06:19:52;;;;;;;3.10;1.40;;;;;;;30.82;20.35;97125.48;108410;1265;34068;-82
2022/05/20 06:22:23;;;;;;;2.70;1.20;;;;;;;30.94;20.29;97127.55;108190;1265;49988;-79
2022/05/20 06:24:53;;;;;;;4.70;1.50;;;;;;;30.13;20.69;97135.85;108164;1267;55549;-81
2022/05/20 06:27:24;;;;;;;4.30;1.30;;;;;;;30.63;20.45;97127.67;108296;1268;32588;-82
2022/05/20 06:29:55;;;;;;;2.80;1.90;;;;;;;30.94;20.83;97130.52;108074;1265;123704;-80
2022/05/20 06:32:27;;;;;;;4.40;1.30;;;;;;;31.60;20.42;97130.27;107964;1265;94016;-80
2022/05/20 06:40:46;;;;;;;4.30;1.60;;;;;;;33.54;18.96;97133.66;106828;1264;1637318;-81
2022/05/20 06:43:19;;;;;;;3.00;1.10;;;;;;;33.21;19.39;97130.68;107794;1265;97223;-80
2022/05/20 06:45:57;;;;;;;4.60;1.20;;;;;;;32.68;19.64;97131.36;105930;1267;2603641;-80
2022/05/20 06:48:41;;;;;;;3.60;1.30;;;;;;;33.21;19.74;97134.39;107455;1268;162545;-80
2022/05/20 06:51:14;;;;;;;3.70;1.40;;;;;;;33.92;19.13;97139.90;107727;1267;103860;-81
2022/05/20 06:53:46;;;;;;;6.70;3.00;;;;;;;33.92;18.81;97137.31;106347;1265;2294007;-80
2022/05/20 06:56:19;;;;;;;3.40;1.40;;;;;;;34.15;19.41;97130.93;108040;1265;91238;-80
2022/05/20 06:58:52;;;;;;;3.00;1.20;;;;;;;34.57;18.67;97130.79;108049;1267;68517;-80
2022/05/20 07:01:24;;;;;;;3.50;1.20;;;;;;;33.79;18.80;97137.52;107728;1267;170466;-76
2022/05/20 07:03:59;;;;;;;1.30;1.20;;;;;;;33.56;19.30;97138.59;107763;1267;103003;-80
2022/05/20 07:06:32;;;;;;;3.10;1.50;;;;;;;33.86;19.86;97138.82;107853;1267;96531;-80
2022/05/20 07:09:07;;;;;;;2.90;1.20;;;;;;;34.83;19.00;97130.74;106641;1268;1779944;-81
2022/05/20 07:11:39;;;;;;;2.30;1.20;;;;;;;35.16;18.52;97129.80;107965;1266;67820;-80
2022/05/20 07:14:10;;;;;;;2.50;1.40;;;;;;;34.82;19.46;97131.95;106748;1265;1826672;-81
2022/05/20 07:16:43;;;;;;;2.20;1.20;;;;;;;36.23;18.90;97128.26;105776;1267;1743540;-81
2022/05/20 07:19:15;;;;;;;2.30;1.40;;;;;;;36.34;17.94;97122.38;107781;1267;93283;-82
2022/05/20 07:21:47;;;;;;;4.10;1.30;;;;;;;35.19;18.18;97120.88;107687;1268;83892;-82
2022/05/20 07:24:19;;;;;;;3.80;1.20;;;;;;;33.58;19.25;97123.45;107577;1266;345918;-81
2022/05/20 07:26:54;;;;;;;2.70;1.30;;;;;;;32.91;20.31;97134.22;107559;1268;196725;-77
2022/05/20 07:29:25;;;;;;;3.00;1.40;;;;;;;33.28;20.82;97137.20;107604;1266;272360;-76
2022/05/20 07:31:57;;;;;;;6.10;1.40;;;;;;;33.75;20.52;97135.08;106642;1267;1577415;-76
2022/05/20 07:34:28;;;;;;;3.00;1.50;;;;;;;34.74;20.06;97136.73;107724;1268;84847;-75
2022/05/20 07:37:00;;;;;;;4.30;1.50;;;;;;;35.69;19.35;97138.41;105076;1267;2196054;-76
2022/05/20 07:39:31;;;;;;;2.20;1.10;;;;;;;36.67;18.10;97136.13;107953;1265;79822;-76
2022/05/20 07:42:03;;;;;;;1.50;1.40;;;;;;;35.56;17.99;97136.45;106527;1265;1838861;-76
2022/05/20 07:44:36;;;;;;;2.10;1.20;;;;;;;34.69;19.06;97142.67;108062;1265;134849;-76
2022/05/20 07:47:09;;;;;;;1.60;1.10;;;;;;;35.56;19.15;97143.41;107875;1266;113383;-76
2022/05/20 07:49:40;;;;;;;1.80;1.10;;;;;;;36.58;18.87;97140.70;107846;1267;152733;-76
2022/05/20 07:53:19;;;;;;;4.60;1.40;;;;;;;37.21;17.91;97143.02;107708;1265;298201;-76
2022/05/20 07:55:09;;;;;;;1.60;1.10;;;;;;;35.55;18.01;97137.17;106647;1268;1682885;-82
2022/05/20 07:57:43;;;;;;;3.50;1.70;;;;;;;34.47;19.30;97127.52;107710;1265;237731;-84
2022/05/20 08:00:17;;;;;;;2.50;1.50;;;;;;;34.73;19.77;97131.16;108077;1265;74090;-84
2022/05/20 08:02:51;;;;;;;4.90;1.40;;;;;;;35.93;18.96;97131.64;102808;1268;5426180;-82
2022/05/20 08:05:25;;;;;;;4.00;1.40;;;;;;;36.31;19.41;97126.08;105928;1265;2378682;-77
2022/05/20 08:08:00;;;;;;;2.80;1.30;;;;;;;36.09;19.17;97124.91;101871;1268;3890044;-76
2022/05/20 08:10:35;;;;;;;2.70;1.20;;;;;;;35.44;19.85;97116.48;108204;1267;30346;-77
2022/05/20 08:13:07;;;;;;;3.10;1.50;;;;;;;34.74;20.65;97122.72;108140;1267;77062;-77
2022/05/20 08:15:38;;;;;;;4.40;1.40;;;;;;;34.43;20.73;97112.73;108166;1267;79009;-77
2022/05/20 08:18:10;;;;;;;2.50;1.40;;;;;;;33.66;21.82;97117.83;108280;1267;32426;-77
2022/05/20 08:20:41;;;;;;;2.80;1.60;;;;;;;32.36;22.78;97124.19;108166;1268;71277;-77
2022/05/20 08:23:20;;;;;;;3.10;1.60;;;;;;;32.79;23.13;97133.20;106793;1268;1797660;-81
2022/05/20 08:25:51;;;;;;;2.50;1.40;;;;;;;33.17;22.56;97126.50;108134;1267;98925;-78
2022/05/20 08:28:24;;;;;;;1.80;1.10;;;;;;;32.92;23.20;97134.92;105959;1268;2621880;-78
2022/05/20 08:30:57;;;;;;;2.90;1.30;;;;;;;32.26;23.13;97136.67;108206;1267;42638;-78
2022/05/20 08:33:30;;;;;;;2.40;1.40;;;;;;;30.68;24.63;97131.67;107000;1267;1587937;-80
2022/05/20 08:36:03;;;;;;;2.40;1.40;;;;;;;28.56;26.68;97138.33;107982;1267;100778;-78
2022/05/20 08:38:35;;;;;;;4.10;1.80;;;;;;;27.08;28.77;97142.85;108178;1268;47766;-80
2022/05/20 08:41:06;;;;;;;2.50;1.70;;;;;;;26.52;30.26;97146.87;107952;1268;146755;-81
2022/05/20 08:43:38;;;;;;;3.60;1.40;;;;;;;26.49;30.74;97143.02;107999;1268;112094;-79
2022/05/20 08:46:11;;;;;;;3.50;2.00;;;;;;;25.96;31.20;97144.95;108168;1268;77467;-76
2022/05/20 08:48:46;;;;;;;3.60;1.90;;;;;;;25.21;32.00;97144.00;108254;1268;35637;-75
2022/05/20 08:51:17;;;;;;;4.00;1.80;;;;;;;24.52;33.16;97143.10;108050;1268;75702;-76
2022/05/20 08:53:50;;;;;;;2.50;1.90;;;;;;;24.13;34.28;97140.30;108238;1267;69434;-76
2022/05/20 08:56:24;;;;;;;4.70;2.10;;;;;;;24.17;34.55;97142.94;108199;1267;39016;-76
2022/05/20 08:59:00;;;;;;;3.20;2.00;;;;;;;23.99;34.83;97141.91;108229;1268;62548;-76
2022/05/20 09:01:35;;;;;;;3.20;2.20;;;;;;;23.66;35.50;97146.94;108148;1268;49021;-76
2022/05/20 09:04:07;;;;;;;3.30;1.90;;;;;;;23.36;36.27;97143.69;108196;1267;38376;-76
2022/05/20 09:06:55;;;;;;;3.50;2.20;;;;;;;23.24;37.10;97141.60;108149;1267;96177;-77
2022/05/20 09:09:30;;;;;;;7.10;2.10;;;;;;;23.08;37.70;97140.04;107212;1268;1218054;-78
2022/05/20 09:12:00;;;;;;;3.80;2.00;;;;;;;23.00;38.48;97138.21;106718;1268;2008170;-77
2022/05/20 09:17:41;;;;;;;4.30;2.20;;;;;;;23.00;39.23;97134.81;103249;1270;5237051;-78
2022/05/20 09:20:17;;;;;;;5.00;2.30;;;;;;;23.36;39.37;97138.49;107429;1267;142362;-77
2022/05/20 09:22:59;;;;;;;3.20;2.10;;;;;;;23.58;39.36;97142.10;107796;1268;137487;-79
2022/05/20 09:25:33;;;;;;;3.90;2.00;;;;;;;23.53;39.17;97137.92;107840;1267;119950;-79
2022/05/20 09:28:28;;;;;;;5.70;2.00;;;;;;;23.63;39.26;97135.51;107421;1267;147969;-78
2022/05/20 09:31:08;;;;;;;3.80;2.40;;;;;;;23.71;39.74;97132.42;107563;1268;120914;-80
2022/05/20 09:33:40;;;;;;;3.10;2.40;;;;;;;23.97;39.77;97131.95;107268;1268;148503;-82
2022/05/20 09:36:29;;;;;;;3.00;2.10;;;;;;;24.21;39.70;97128.32;106177;1268;1479442;-77
2022/05/20 09:39:10;;;;;;;3.90;2.40;;;;;;;24.34;39.01;97127.55;108138;1265;75671;-77
2022/05/20 09:41:55;;;;;;;5.90;2.20;;;;;;;24.20;39.03;97124.81;106102;1265;1799878;-79
2022/05/20 09:44:34;;;;;;;3.80;1.90;;;;;;;24.19;39.09;97122.70;105532;1265;2658160;-79
2022/05/20 09:47:13;;;;;;;2.50;1.80;;;;;;;24.36;38.85;97114.73;107800;1265;107397;-78
2022/05/20 09:49:52;;;;;;;3.70;2.00;;;;;;;24.50;38.70;97112.00;107619;1265;131313;-78
2022/05/20 09:52:41;;;;;;;3.20;2.20;;;;;;;24.75;38.42;97110.02;106589;1265;1849352;-76
2022/05/20 09:55:25;;;;;;;3.10;2.00;;;;;;;24.95;38.39;97097.61;107441;1268;181725;-78
2022/05/20 09:57:57;;;;;;;3.20;2.10;;;;;;;24.89;37.49;97095.40;107723;1265;127447;-76
2022/05/20 10:00:32;;;;;;;4.10;2.30;;;;;;;24.81;38.18;97092.79;106524;1265;1394417;-80
2022/05/20 10:03:16;;;;;;;2.20;1.80;;;;;;;24.79;38.03;97093.98;106173;1265;1964187;-82
2022/05/20 10:05:58;;;;;;;4.60;2.60;;;;;;;24.80;37.97;97091.29;106712;1265;1416445;-81
2022/05/20 10:08:37;;;;;;;3.80;2.50;;;;;;;24.75;37.84;97084.06;107406;1267;146312;-82
2022/05/20 10:11:27;;;;;;;5.50;2.40;;;;;;;24.75;37.68;97088.64;105334;1268;1412720;-82
2022/05/20 10:14:11;;;;;;;3.90;2.80;;;;;;;24.72;37.95;97089.05;107000;1268;1254124;-82
2022/05/20 10:16:50;;;;;;;3.40;1.90;;;;;;;24.78;37.54;97085.13;108562;1267;158479;-83
2022/05/20 10:19:36;;;;;;;3.20;1.70;;;;;;;24.76;38.08;97083.69;104586;1267;2032486;-81
2022/05/20 10:22:17;;;;;;;4.00;1.90;;;;;;;24.73;37.88;97086.73;103482;1268;1836802;-79
2022/05/20 10:24:58;;;;;;;3.20;2.20;;;;;;;24.73;38.15;97082.86;103783;1265;5053499;-80
2022/05/20 10:27:45;;;;;;;4.70;2.50;;;;;;;24.73;38.18;97078.75;107307;1268;151843;-81
2022/05/20 10:33:23;;;;;;;2.60;2.00;;;;;;;25.00;37.84;97069.73;105944;1267;1540937;-79
2022/05/20 10:36:11;;;;;;;3.50;1.80;;;;;;;25.08;38.26;97068.97;107253;1268;172944;-79
2022/05/20 10:39:06;;;;;;;5.90;2.10;;;;;;;24.99;37.61;97065.08;107405;1265;150789;-78
2022/05/20 10:42:00;;;;;;;3.50;1.90;;;;;;;25.06;38.18;97061.71;107401;1267;146195;-77
2022/05/20 10:51:00;;;;;;;3.60;2.10;;;;;;;25.11;38.64;97043.28;106324;1265;2134110;-77
2022/05/20 10:53:46;;;;;;;1.80;1.70;;;;;;;25.11;37.85;97037.30;105993;1267;1905798;-78
2022/05/20 10:56:40;;;;;;;4.30;2.30;;;;;;;24.98;38.01;97040.63;107354;1267;154584;-77
2022/05/20 10:59:44;;;;;;;7.40;2.40;;;;;;;25.00;38.69;97031.60;107660;1268;187055;-77
2022/05/20 11:02:38;;;;;;;3.10;1.90;;;;;;;25.18;38.60;97025.72;106519;1265;1394030;-77
2022/05/20 11:05:35;;;;;;;2.40;1.90;;;;;;;25.23;38.15;97031.16;107524;1268;116869;-78
2022/05/20 11:08:23;;;;;;;6.00;2.30;;;;;;;25.33;38.17;97026.56;107534;1268;145223;-78
2022/05/20 11:11:14;;;;;;;3.70;2.10;;;;;;;25.54;38.52;97023.80;107349;1268;160964;-78
2022/05/20 11:14:07;;;;;;;5.20;2.00;;;;;;;25.74;38.81;97021.46;107383;1267;108506;-77
2022/05/20 11:16:58;;;;;;;3.30;1.80;;;;;;;25.79;38.15;97026.98;107364;1268;145149;-78
2022/05/20 11:19:46;;;;;;;3.10;2.10;;;;;;;25.69;37.68;97020.85;107667;1268;110727;-77
2022/05/20 11:22:45;;;;;;;3.20;1.80;;;;;;;25.46;38.37;97024.06;107412;1267;137479;-77
2022/05/20 11:25:26;;;;;;;3.10;1.70;;;;;;;25.43;38.59;97020.77;107483;1267;112808;-79
2022/05/20 11:28:14;;;;;;;;;;;;;;;25.56;38.90;97020.02;107379;1267;210045;-79
2022/05/20 11:31:11;;;;;;;2.60;1.80;;;;;;;25.65;38.51;97015.73;107513;1267;124277;-78
2022/05/20 11:33:52;;;;;;;2.30;1.50;;;;;;;25.83;38.47;97012.98;107309;1268;147330;-77
2022/05/20 11:36:52;;;;;;;3.40;1.70;;;;;;;25.83;37.78;97009.65;107592;1267;109965;-78
2022/05/20 11:39:55;;;;;;;3.80;1.60;;;;;;;25.80;37.59;97013.27;107572;1268;133582;-78
2022/05/20 11:42:42;;;;;;;4.50;1.70;;;;;;;25.81;37.46;97004.59;107352;1267;131592;-78
2022/05/20 11:45:21;;;;;;;3.20;1.40;;;;;;;25.64;37.64;97000.67;105777;1268;2105674;-77
2022/05/20 11:48:25;;;;;;;4.70;1.80;;;;;;;25.57;37.83;96993.05;107541;1268;138364;-78
2022/05/20 11:51:26;;;;;;;3.80;1.70;;;;;;;25.62;37.15;96996.21;107302;1267;164065;-79
2022/05/20 11:54:02;;;;;;;3.70;1.80;;;;;;;25.76;37.24;96992.16;107266;1268;129231;-78
2022/05/20 11:56:40;;;;;;;2.70;1.70;;;;;;;25.88;36.68;96981.77;107214;1268;203041;-79
2022/05/20 11:59:17;;;;;;;2.90;1.60;;;;;;;25.91;37.50;96976.77;107498;1268;116308;-78
2022/05/20 12:01:51;;;;;;;3.00;1.90;;;;;;;26.03;37.38;96976.05;106443;1268;1491003;-79
2022/05/20 12:04:27;;;;;;;4.20;2.10;;;;;;;26.25;37.24;96974.52;107798;1267;135545;-79
2022/05/20 12:07:01;;;;;;;2.50;1.50;;;;;;;26.43;36.69;96974.45;107277;1267;142003;-78
2022/05/20 12:09:40;;;;;;;2.50;1.70;;;;;;;26.54;36.30;96965.00;107369;1267;117940;-78
2022/05/20 12:12:19;;;;;;;3.40;1.60;;;;;;;26.58;36.58;96965.05;107513;1268;123422;-79
2022/05/20 12:15:07;;;;;;;1.80;1.50;;;;;;;26.69;36.14;96965.06;106113;1268;2028113;-77
2022/05/20 12:17:41;;;;;;;2.90;1.80;;;;;;;26.83;36.44;96966.90;107489;1268;133448;-78
2022/05/20 12:26:28;;;;;;;;;;;;;;;26.79;35.12;96967.96;107853;1268;113809;-78
2022/05/20 12:28:59;;;;;;;3.60;2.20;;;;;;;26.79;35.56;96962.84;107465;1268;149277;-79
2022/05/20 12:31:50;;;;;;;4.10;1.80;;;;;;;26.87;35.26;96962.89;107424;1268;135941;-79
2022/05/20 12:34:41;;;;;;;3.10;2.00;;;;;;;26.90;35.47;96968.23;107765;1267;143370;-79
2022/05/20 12:37:50;;;;;;;3.90;1.90;;;;;;;26.94;35.29;96967.55;107428;1265;173255;-78
2022/05/20 12:40:45;;;;;;;2.40;1.20;;;;;;;26.76;34.77;96965.67;105389;1268;1830796;-78